createdAt,value
2023-05-16T00:02:19.400Z,97684.94
2023-05-16T00:05:26.005Z,97675.81
2023-05-16T00:08:32.616Z,97688.03
2023-05-16T00:11:38.278Z,97684.72
2023-05-16T00:14:48.358Z,97686.59
2023-05-16T00:17:58.219Z,97686.88
2023-05-16T00:21:04.970Z,97680.16
2023-05-16T00:24:11.680Z,97685.44
2023-05-16T00:27:18.097Z,97674.66
2023-05-16T00:30:26.559Z,97687.44
2023-05-16T00:33:33.042Z,97683.50
2023-05-16T00:36:38.999Z,97681.84
2023-05-16T00:39:45.509Z,97681.25
2023-05-16T00:42:51.818Z,97681.47
2023-05-16T00:46:02.391Z,97687.72
2023-05-16T00:49:08.693Z,97692.88
2023-05-16T00:52:15.146Z,97675.03
2023-05-16T00:55:21.171Z,97684.00
2023-05-16T00:58:28.591Z,97680.53
2023-05-16T01:01:39.715Z,97685.66
2023-05-16T01:04:48.607Z,97656.97
2023-05-16T01:07:55.290Z,97680.75
2023-05-16T01:11:15.159Z,97681.84
2023-05-16T01:14:32.680Z,97690.69
2023-05-16T01:17:59.590Z,97683.03
2023-05-16T01:21:16.174Z,97681.00
2023-05-16T01:24:36.311Z,97675.72
2023-05-16T01:27:47.651Z,97673.72
2023-05-16T01:30:54.963Z,97668.94
2023-05-16T01:34:02.845Z,97672.78
2023-05-16T01:37:22.703Z,97639.97
2023-05-16T01:40:41.913Z,97668.91
2023-05-16T01:43:56.238Z,97672.88
2023-05-16T01:47:11.571Z,97677.31
2023-05-16T01:50:19.894Z,97679.22
2023-05-16T01:53:36.714Z,97672.50
2023-05-16T01:56:47.901Z,97673.72
2023-05-16T01:59:57.909Z,97668.00
2023-05-16T02:03:03.762Z,97669.16
2023-05-16T02:06:10.875Z,97672.03
2023-05-16T02:09:16.549Z,97673.97
2023-05-16T02:12:23.209Z,97669.53
2023-05-16T02:15:31.996Z,97678.03
2023-05-16T02:18:39.037Z,97677.06
2023-05-16T02:21:44.598Z,97690.69
2023-05-16T02:24:51.143Z,97683.88
2023-05-16T02:27:57.657Z,97684.97
2023-05-16T02:31:07.222Z,97680.91
2023-05-16T02:34:12.903Z,97687.38
2023-05-16T02:37:19.285Z,97688.19
2023-05-16T02:40:24.849Z,97685.56
2023-05-16T02:43:31.568Z,97690.50
2023-05-16T02:46:40.185Z,97687.72
2023-05-16T02:49:46.629Z,97694.06
2023-05-16T02:52:52.598Z,97686.28
2023-05-16T02:55:58.991Z,97694.78
2023-05-16T02:59:04.637Z,97689.28
2023-05-16T03:02:13.860Z,97690.34
2023-05-16T03:05:20.185Z,97688.78
2023-05-16T03:08:27.795Z,97694.78
2023-05-16T03:11:36.809Z,97691.06
2023-05-16T03:14:43.380Z,97696.00
2023-05-16T03:17:51.795Z,97704.50
2023-05-16T03:20:58.493Z,97703.53
2023-05-16T03:24:06.010Z,97702.22
2023-05-16T03:27:12.553Z,97703.66
2023-05-16T03:30:19.648Z,97717.53
2023-05-16T03:33:29.175Z,97717.06
2023-05-16T03:36:34.824Z,97727.13
2023-05-16T03:39:41.170Z,97732.16
2023-05-16T03:42:46.766Z,97726.13
2023-05-16T03:45:53.163Z,97729.84
2023-05-16T03:49:01.553Z,97729.50
2023-05-16T03:52:08.674Z,97721.72
2023-05-16T03:55:15.451Z,97719.69
2023-05-16T03:58:21.817Z,97728.06
2023-05-16T04:01:27.878Z,97732.63
2023-05-16T04:04:37.029Z,97735.03
2023-05-16T04:07:43.880Z,97734.53
2023-05-16T04:10:50.214Z,97729.03
2023-05-16T04:13:57.266Z,97737.75
2023-05-16T04:17:04.132Z,97737.53
2023-05-16T04:20:14.206Z,97719.91
2023-05-16T04:23:20.604Z,97738.91
2023-05-16T04:26:26.025Z,97745.97
2023-05-16T04:29:32.383Z,97752.19
2023-05-16T04:32:38.420Z,97759.22
2023-05-16T04:35:48.825Z,97761.00
2023-05-16T04:38:54.402Z,97767.91
2023-05-16T04:42:01.696Z,97768.13
2023-05-16T04:45:11.250Z,97772.66
2023-05-16T04:48:18.134Z,97762.31
2023-05-16T04:51:29.582Z,97779.06
2023-05-16T04:54:35.916Z,97788.59
2023-05-16T04:57:41.475Z,97794.66
2023-05-16T05:00:47.834Z,97789.69
2023-05-16T05:03:53.335Z,97785.38
2023-05-16T05:07:02.532Z,97782.22
2023-05-16T05:10:09.033Z,97785.03
2023-05-16T05:13:15.390Z,97792.31
2023-05-16T05:16:20.989Z,97801.41
2023-05-16T05:19:27.550Z,97794.63
2023-05-16T05:22:36.146Z,97801.41
2023-05-16T05:25:43.181Z,97799.66
2023-05-16T05:29:01.083Z,97803.16
2023-05-16T05:32:11.869Z,97800.69
2023-05-16T05:35:18.346Z,97796.53
2023-05-16T05:38:27.492Z,97794.75
2023-05-16T05:41:33.077Z,97780.41
2023-05-16T05:44:39.482Z,97794.13
2023-05-16T05:47:46.441Z,97802.91
2023-05-16T05:50:53.420Z,97796.88
2023-05-16T05:54:02.218Z,97806.09
2023-05-16T05:57:09.367Z,97770.84
2023-05-16T06:00:16.751Z,97805.72
2023-05-16T06:03:24.209Z,97808.63
2023-05-16T06:06:30.304Z,97803.34
2023-05-16T06:09:39.598Z,97815.56
2023-05-16T06:12:45.168Z,97820.59
2023-05-16T06:15:54.628Z,97826.16
2023-05-16T06:19:00.423Z,97813.50
2023-05-16T06:22:06.900Z,97818.78
2023-05-16T06:25:15.820Z,97820.06
2023-05-16T06:28:22.229Z,97822.59
2023-05-16T06:31:27.872Z,97814.38
2023-05-16T06:34:34.365Z,97819.25
2023-05-16T06:37:42.074Z,97821.78
2023-05-16T06:40:52.566Z,97810.94
2023-05-16T06:43:58.155Z,97816.63
2023-05-16T06:47:04.902Z,97821.22
2023-05-16T06:50:12.497Z,97805.50
2023-05-16T06:53:19.015Z,97817.88
2023-05-16T06:56:29.062Z,97807.84
2023-05-16T06:59:35.533Z,97816.75
2023-05-16T07:02:41.197Z,97810.47
2023-05-16T07:05:47.767Z,97809.47
2023-05-16T07:08:53.313Z,97825.34
2023-05-16T07:12:02.743Z,97810.81
2023-05-16T07:15:10.101Z,97817.19
2023-05-16T07:18:16.557Z,97819.38
2023-05-16T07:21:22.129Z,97810.94
2023-05-16T07:24:28.555Z,97830.41
2023-05-16T07:27:36.901Z,97828.72
2023-05-16T07:30:43.267Z,97828.44
2023-05-16T07:33:49.822Z,97837.31
2023-05-16T07:36:56.421Z,97655.72
2023-05-16T07:40:02.317Z,97838.50
2023-05-16T07:43:11.455Z,97847.13
2023-05-16T07:46:17.464Z,97847.53
2023-05-16T07:49:24.005Z,97857.56
2023-05-16T07:52:29.687Z,97865.28
2023-05-16T07:55:36.269Z,97876.09
2023-05-16T07:58:45.577Z,97887.81
2023-05-16T08:01:52.249Z,97890.88
2023-05-16T08:04:57.826Z,97901.88
2023-05-16T08:08:04.489Z,97895.34
2023-05-16T08:11:10.254Z,97896.25
2023-05-16T08:14:19.503Z,97899.78
2023-05-16T08:17:25.237Z,97892.53
2023-05-16T08:20:31.790Z,97892.19
2023-05-16T08:23:37.382Z,97899.34
2023-05-16T08:26:43.776Z,97911.16
2023-05-16T08:29:52.093Z,97903.44
2023-05-16T08:32:58.604Z,97899.53
2023-05-16T08:36:04.504Z,97891.81
2023-05-16T08:39:11.802Z,97894.56
2023-05-16T08:42:17.662Z,97900.94
2023-05-16T08:45:29.184Z,97904.13
2023-05-16T08:48:37.553Z,97895.94
2023-05-16T08:51:44.691Z,97878.50
2023-05-16T08:55:09.249Z,97879.84
2023-05-16T08:58:18.632Z,97891.88
2023-05-16T09:01:27.529Z,97883.22
2023-05-16T09:04:35.499Z,97890.59
2023-05-16T09:07:41.135Z,97889.63
2023-05-16T09:10:47.707Z,97895.66
2023-05-16T09:13:53.553Z,97905.00
2023-05-16T09:17:13.605Z,97900.88
2023-05-16T09:20:22.152Z,97897.06
2023-05-16T09:23:28.876Z,97902.03
2023-05-16T09:26:37.425Z,97894.03
2023-05-16T09:29:45.111Z,97888.56
2023-05-16T09:32:56.383Z,97893.38
2023-05-16T09:36:06.020Z,97897.41
2023-05-16T09:39:12.572Z,97897.41
2023-05-16T09:42:21.030Z,97901.38
2023-05-16T09:45:27.084Z,97902.03
2023-05-16T09:48:36.722Z,97890.38
2023-05-16T09:51:43.901Z,97893.38
2023-05-16T09:54:52.004Z,97895.38
2023-05-16T09:57:57.689Z,97895.41
2023-05-16T10:01:05.291Z,97903.56
2023-05-16T10:04:16.394Z,97899.09
2023-05-16T10:07:25.961Z,97853.09
2023-05-16T10:10:33.441Z,97880.34
2023-05-16T10:13:40.592Z,97870.66
2023-05-16T10:16:49.778Z,97875.31
2023-05-16T10:19:59.649Z,97878.28
2023-05-16T10:23:08.864Z,97883.53
2023-05-16T10:26:17.322Z,97887.47
2023-05-16T10:29:24.034Z,97878.38
2023-05-16T10:32:32.289Z,97897.19
2023-05-16T10:35:41.754Z,97869.25
2023-05-16T10:38:51.160Z,97874.25
2023-05-16T10:41:57.665Z,97869.84
2023-05-16T10:45:20.034Z,97859.25
2023-05-16T10:48:34.736Z,97869.66
2023-05-16T10:51:43.895Z,97878.78
2023-05-16T10:54:56.383Z,97877.94
2023-05-16T10:58:02.807Z,97872.88
2023-05-16T11:01:24.450Z,97865.94
2023-05-16T11:04:51.967Z,97864.19
2023-05-16T11:08:10.345Z,97855.56
2023-05-16T11:11:49.624Z,97865.28
2023-05-16T11:14:55.954Z,97865.28
2023-05-16T11:18:11.280Z,97857.38
2023-05-16T11:21:17.152Z,97861.59
2023-05-16T11:24:36.424Z,97849.47
2023-05-16T11:27:52.019Z,97841.84
2023-05-16T11:31:05.592Z,97840.56
2023-05-16T11:34:11.472Z,97836.09
2023-05-16T11:37:18.621Z,97839.97
2023-05-16T11:40:26.962Z,97844.22
2023-05-16T11:43:34.313Z,97856.66
2023-05-16T11:46:40.130Z,97842.47
2023-05-16T11:49:48.758Z,97840.56
2023-05-16T11:52:57.835Z,97833.53
2023-05-16T11:56:07.734Z,97838.88
2023-05-16T11:59:16.058Z,97843.50
2023-05-16T12:02:23.000Z,97832.91
2023-05-16T12:05:31.410Z,97839.09
2023-05-16T12:08:38.851Z,97839.47
2023-05-16T12:11:47.994Z,97805.81
2023-05-16T12:14:54.681Z,97829.31
2023-05-16T12:18:00.841Z,97840.56
2023-05-16T12:21:07.767Z,97838.53
2023-05-16T12:24:15.727Z,97847.47
2023-05-16T12:27:29.730Z,97831.00
2023-05-16T12:30:36.797Z,97831.53
2023-05-16T12:33:43.597Z,97833.38
2023-05-16T12:36:53.937Z,97827.22
2023-05-16T12:40:04.515Z,97822.22
2023-05-16T12:43:21.017Z,97768.41
2023-05-16T12:46:29.253Z,97816.72
2023-05-16T12:49:36.863Z,97816.91
2023-05-16T12:52:52.634Z,97809.13
2023-05-16T12:55:58.225Z,97806.09
2023-05-16T12:59:07.493Z,97807.09
2023-05-16T13:02:13.059Z,97808.66
2023-05-16T13:05:22.335Z,97789.06
2023-05-16T13:08:28.611Z,97798.31
2023-05-16T13:11:35.016Z,97809.47
2023-05-16T13:14:43.957Z,97788.59
2023-05-16T13:17:51.598Z,97802.75
2023-05-16T13:20:57.231Z,97798.75
2023-05-16T13:24:03.641Z,97802.03
2023-05-16T13:27:09.353Z,97796.47
2023-05-16T13:30:19.030Z,97791.84
2023-05-16T13:33:25.190Z,97789.19
2023-05-16T13:36:41.571Z,97788.06
2023-05-16T13:39:47.950Z,97786.28
2023-05-16T13:42:54.659Z,97780.22
2023-05-16T13:46:04.087Z,97779.84
2023-05-16T13:49:10.544Z,97781.63
2023-05-16T13:52:16.748Z,97779.19
2023-05-16T13:55:24.042Z,97781.09
2023-05-16T13:58:30.339Z,97782.47
2023-05-16T14:01:39.750Z,97778.81
2023-05-16T14:04:47.260Z,97779.16
2023-05-16T14:07:56.193Z,97777.84
2023-05-16T14:11:01.817Z,97775.69
2023-05-16T14:14:08.167Z,97777.19
2023-05-16T14:17:16.798Z,97778.22
2023-05-16T14:20:23.551Z,97787.97
2023-05-16T14:23:29.141Z,97786.16
2023-05-16T14:26:35.619Z,97791.34
2023-05-16T14:29:41.596Z,97784.69
2023-05-16T14:32:51.002Z,97783.00
2023-05-16T14:35:56.750Z,97789.19
2023-05-16T14:39:03.841Z,97788.34
2023-05-16T14:42:09.862Z,97799.72
2023-05-16T14:45:16.393Z,97811.91
2023-05-16T14:48:24.697Z,97816.22
2023-05-16T14:51:32.590Z,97824.88
2023-05-16T14:54:38.547Z,97802.69
2023-05-16T14:57:45.597Z,97834.88
2023-05-16T15:00:51.573Z,97829.03
2023-05-16T15:04:00.829Z,97838.69
2023-05-16T15:07:06.446Z,97838.69
2023-05-16T15:10:14.253Z,97834.84
2023-05-16T15:13:19.883Z,97840.03
2023-05-16T15:16:26.732Z,97837.03
2023-05-16T15:19:35.339Z,97835.31
2023-05-16T15:22:43.277Z,97840.00
2023-05-16T15:25:49.687Z,97851.63
2023-05-16T15:28:56.183Z,97848.72
2023-05-16T15:32:01.961Z,97847.50
2023-05-16T15:35:12.287Z,97827.19
2023-05-16T15:38:17.933Z,97835.13
2023-05-16T15:41:46.431Z,97832.25
2023-05-16T15:44:50.515Z,97824.94
2023-05-16T15:47:57.213Z,97838.69
2023-05-16T15:51:05.632Z,97836.63
2023-05-16T15:54:12.428Z,97842.66
2023-05-16T15:57:18.233Z,97828.34
2023-05-16T16:00:25.082Z,97832.09
2023-05-16T16:03:31.002Z,97829.16
2023-05-16T16:06:40.396Z,97828.13
2023-05-16T16:09:46.048Z,97828.09
2023-05-16T16:13:03.778Z,97822.63
2023-05-16T16:16:10.231Z,97827.47
2023-05-16T16:19:16.764Z,97826.00
2023-05-16T16:22:25.176Z,97824.78
2023-05-16T16:25:31.652Z,97830.00
2023-05-16T16:28:37.262Z,97817.75
2023-05-16T16:31:43.771Z,97839.38
2023-05-16T16:34:49.727Z,97836.59
2023-05-16T16:38:06.828Z,97839.94
2023-05-16T16:41:14.709Z,97834.34
2023-05-16T16:44:23.033Z,97838.13
2023-05-16T16:47:32.699Z,97844.00
2023-05-16T16:50:39.458Z,97846.88
2023-05-16T16:53:48.148Z,97845.78
2023-05-16T16:56:54.922Z,97848.69
2023-05-16T17:00:00.834Z,97862.25
2023-05-16T17:03:07.591Z,97856.41
2023-05-16T17:06:13.290Z,97846.16
2023-05-16T17:09:23.758Z,97858.16
2023-05-16T17:12:29.247Z,97856.53
2023-05-16T17:15:35.923Z,97864.38
2023-05-16T17:18:41.683Z,97873.31
2023-05-16T17:21:48.184Z,97874.19
2023-05-16T17:24:56.860Z,97876.28
2023-05-16T17:28:03.291Z,97876.72
2023-05-16T17:31:09.066Z,97878.53
2023-05-16T17:34:15.880Z,97883.00
2023-05-16T17:37:21.386Z,97882.84
2023-05-16T17:40:31.079Z,97888.00
2023-05-16T17:43:36.589Z,97863.34
2023-05-16T17:46:44.914Z,97874.03
2023-05-16T17:49:51.042Z,97867.97
2023-05-16T17:52:57.646Z,97887.34
2023-05-16T17:56:06.357Z,97886.66
2023-05-16T17:59:13.908Z,97885.75
2023-05-16T18:02:19.517Z,97867.03
2023-05-16T18:05:26.195Z,97874.97
2023-05-16T18:08:31.983Z,97872.59
2023-05-16T18:11:43.487Z,97863.78
2023-05-16T18:14:49.346Z,97872.81
2023-05-16T18:17:55.846Z,97872.22
2023-05-16T18:21:02.208Z,97876.94
2023-05-16T18:24:11.862Z,97879.16
2023-05-16T18:27:20.437Z,97889.72
2023-05-16T18:30:26.904Z,97892.63
2023-05-16T18:33:33.077Z,97884.69
2023-05-16T18:36:39.517Z,97898.75
2023-05-16T18:39:45.309Z,97906.34
2023-05-16T18:42:56.515Z,97913.56
2023-05-16T18:46:02.795Z,97918.28
2023-05-16T18:49:09.417Z,97919.38
2023-05-16T18:52:15.176Z,97908.81
2023-05-16T18:55:21.650Z,97910.41
2023-05-16T18:58:29.977Z,97906.97
2023-05-16T19:01:37.288Z,97926.25
2023-05-16T19:04:42.958Z,97925.84
2023-05-16T19:07:49.432Z,97919.50
2023-05-16T19:10:55.241Z,97929.22
2023-05-16T19:14:04.382Z,97940.75
2023-05-16T19:17:09.950Z,97946.50
2023-05-16T19:20:16.510Z,97942.88
2023-05-16T19:23:22.331Z,97925.16
2023-05-16T19:26:30.139Z,97921.19
2023-05-16T19:29:38.668Z,97912.94
2023-05-16T19:32:45.151Z,97907.50
2023-05-16T19:35:51.957Z,97915.28
2023-05-16T19:39:35.869Z,97925.94
2023-05-16T19:42:53.434Z,97931.91
2023-05-16T19:46:02.625Z,97931.63
2023-05-16T19:49:08.846Z,97925.66
2023-05-16T19:52:15.457Z,97922.16
2023-05-16T19:55:20.991Z,97920.75
2023-05-16T19:58:27.669Z,97920.41
2023-05-16T20:01:35.952Z,97915.63
2023-05-16T20:04:42.470Z,97912.53
2023-05-16T20:07:48.317Z,97913.44
2023-05-16T20:10:54.731Z,97916.56
2023-05-16T20:14:00.493Z,97910.56
2023-05-16T20:17:10.118Z,97922.53
2023-05-16T20:20:15.823Z,97927.09
2023-05-16T20:23:22.293Z,97927.56
2023-05-16T20:26:28.189Z,97932.84
2023-05-16T20:29:34.777Z,97923.34
2023-05-16T20:32:43.345Z,97916.59
2023-05-16T20:35:49.782Z,97920.25
2023-05-16T20:38:55.399Z,97904.66
2023-05-16T20:42:01.899Z,97891.56
2023-05-16T20:45:08.498Z,97891.72
2023-05-16T20:48:17.669Z,97881.81
2023-05-16T20:51:23.181Z,97885.44
2023-05-16T20:54:29.815Z,97893.47
2023-05-16T20:57:35.536Z,97884.47
2023-05-16T21:00:43.168Z,97898.84
2023-05-16T21:03:51.823Z,97881.84
2023-05-16T21:06:58.288Z,97877.81
2023-05-16T21:10:04.586Z,97897.22
2023-05-16T21:13:11.189Z,97889.78
2023-05-16T21:16:16.909Z,97890.63
2023-05-16T21:19:26.635Z,97902.72
2023-05-16T21:22:32.632Z,97881.38
2023-05-16T21:25:39.382Z,97880.19
2023-05-16T21:28:54.448Z,97880.09
2023-05-16T21:32:01.882Z,97881.41
2023-05-16T21:35:11.518Z,97867.50
2023-05-16T21:38:18.188Z,97862.00
2023-05-16T21:41:23.869Z,97859.72
2023-05-16T21:44:31.993Z,97862.72
2023-05-16T21:47:37.630Z,97834.66
2023-05-16T21:50:46.981Z,97844.97
2023-05-16T21:53:52.529Z,97850.47
2023-05-16T21:56:59.391Z,97824.81
2023-05-16T22:00:09.712Z,97833.56
2023-05-16T22:03:19.245Z,97843.53
2023-05-16T22:06:28.149Z,97839.06
2023-05-16T22:09:34.588Z,97832.22
2023-05-16T22:12:40.239Z,97849.91
2023-05-16T22:15:59.506Z,97843.94
2023-05-16T22:19:09.856Z,97821.91
2023-05-16T22:22:19.797Z,97836.28
2023-05-16T22:25:25.851Z,97815.31
2023-05-16T22:28:32.489Z,97821.47
2023-05-16T22:31:38.167Z,97828.56
2023-05-16T22:34:44.474Z,97847.28
2023-05-16T22:37:52.993Z,97864.72
2023-05-16T22:40:59.594Z,97826.03
2023-05-16T22:44:05.605Z,97848.22
2023-05-16T22:47:11.935Z,97827.97
2023-05-16T22:50:17.890Z,97843.44
2023-05-16T22:53:27.351Z,97838.16
2023-05-16T22:56:32.938Z,97843.47
2023-05-16T22:59:39.326Z,97829.47
2023-05-16T23:02:45.014Z,97853.84
2023-05-16T23:05:51.468Z,97869.50
2023-05-16T23:09:00.348Z,97858.63
2023-05-16T23:12:07.098Z,97862.72
2023-05-16T23:15:13.938Z,97858.84
2023-05-16T23:18:20.348Z,97850.44
2023-05-16T23:21:26.331Z,97843.53
2023-05-16T23:24:35.669Z,97878.25
2023-05-16T23:27:41.190Z,97876.56
2023-05-16T23:30:47.626Z,97881.84
2023-05-16T23:33:53.468Z,97884.13
2023-05-16T23:36:59.963Z,97872.50
2023-05-16T23:40:10.222Z,97869.06
2023-05-16T23:43:16.850Z,97877.31
2023-05-16T23:46:22.332Z,97888.31
2023-05-16T23:49:28.751Z,97885.19
2023-05-16T23:52:34.633Z,97903.75
2023-05-16T23:55:43.781Z,97897.66
2023-05-16T23:58:49.535Z,97902.28
